createdAt,value
2022-11-06T00:01:19.368Z,24.02
2022-11-06T00:03:55.560Z,28.35
2022-11-06T00:06:46.459Z,28.27
2022-11-06T00:09:21.142Z,25.45
2022-11-06T00:11:53.420Z,30.20
2022-11-06T00:14:25.791Z,42.47
2022-11-06T00:16:57.872Z,28.48
2022-11-06T00:19:29.883Z,32.72
2022-11-06T00:22:02.218Z,31.60
2022-11-06T00:24:34.325Z,32.50
2022-11-06T00:27:06.472Z,32.28
2022-11-06T00:29:38.560Z,35.40
2022-11-06T00:32:10.791Z,27.00
2022-11-06T00:34:43.036Z,29.92
2022-11-06T00:37:15.179Z,35.53
2022-11-06T00:39:47.130Z,30.48
2022-11-06T00:42:19.182Z,28.30
2022-11-06T00:44:51.154Z,28.17
2022-11-06T00:47:23.351Z,25.55
2022-11-06T00:49:55.454Z,24.70
2022-11-06T00:52:30.048Z,28.80
2022-11-06T00:55:02.012Z,30.95
2022-11-06T00:57:34.009Z,36.20
2022-11-06T01:00:07.306Z,24.55
2022-11-06T01:02:39.760Z,22.80
2022-11-06T01:05:13.017Z,29.02
2022-11-06T01:07:45.066Z,27.63
2022-11-06T01:10:17.128Z,25.40
2022-11-06T01:12:49.307Z,25.67
2022-11-06T01:15:21.383Z,32.83
2022-11-06T01:17:53.385Z,23.70
2022-11-06T01:20:25.442Z,21.85
2022-11-06T01:22:57.422Z,27.77
2022-11-06T01:25:29.462Z,24.48
2022-11-06T01:28:01.711Z,27.73
2022-11-06T01:30:37.410Z,24.00
2022-11-06T01:33:09.367Z,23.73
2022-11-06T01:35:48.894Z,30.48
2022-11-06T01:38:20.930Z,28.63
2022-11-06T01:40:54.241Z,23.08
2022-11-06T01:43:46.492Z,27.85
2022-11-06T01:46:19.965Z,27.92
2022-11-06T01:48:55.861Z,21.55
2022-11-06T01:51:31.124Z,21.73
2022-11-06T01:54:08.694Z,21.70
2022-11-06T01:56:42.843Z,20.10
2022-11-06T01:59:18.119Z,23.70
2022-11-06T02:01:51.333Z,17.98
2022-11-06T02:04:26.591Z,19.27
2022-11-06T02:06:59.885Z,18.63
2022-11-06T02:09:34.196Z,25.77
2022-11-06T02:12:15.697Z,20.95
2022-11-06T02:15:17.659Z,21.90
2022-11-06T02:18:22.045Z,22.35
2022-11-06T02:24:13.109Z,17.08
2022-11-06T02:27:04.161Z,17.23
2022-11-06T02:29:45.815Z,21.35
2022-11-06T02:32:29.119Z,18.35
2022-11-06T02:35:06.057Z,18.40
2022-11-06T02:37:40.568Z,19.85
2022-11-06T02:40:14.893Z,14.48
2022-11-06T02:42:50.608Z,15.73
2022-11-06T02:45:25.249Z,16.30
2022-11-06T02:47:59.187Z,17.88
2022-11-06T02:50:35.544Z,16.05
2022-11-06T02:53:10.419Z,17.23
2022-11-06T02:55:48.531Z,16.13
2022-11-06T02:58:24.801Z,19.85
2022-11-06T03:01:06.716Z,14.88
2022-11-06T03:03:43.809Z,14.85
2022-11-06T03:06:31.662Z,11.75
2022-11-06T03:09:09.658Z,13.77
2022-11-06T03:11:41.972Z,12.98
2022-11-06T03:14:38.249Z,14.98
2022-11-06T03:17:27.081Z,17.65
2022-11-06T03:20:08.370Z,13.40
2022-11-06T03:23:01.989Z,16.58
2022-11-06T03:25:59.862Z,14.93
2022-11-06T03:28:47.712Z,22.83
2022-11-06T03:31:30.283Z,11.98
2022-11-06T03:34:07.544Z,12.05
2022-11-06T03:36:47.415Z,15.38
2022-11-06T03:39:27.616Z,12.80
2022-11-06T03:42:05.518Z,13.23
2022-11-06T03:44:43.906Z,16.42
2022-11-06T03:47:21.174Z,13.45
2022-11-06T03:50:17.271Z,12.27
2022-11-06T03:53:17.216Z,12.80
2022-11-06T03:55:55.163Z,16.02
2022-11-06T03:58:32.760Z,18.63
2022-11-06T04:01:08.646Z,24.35
2022-11-06T04:03:56.885Z,19.33
2022-11-06T04:06:42.409Z,16.90
2022-11-06T04:09:36.806Z,15.15
2022-11-06T04:12:30.545Z,15.00
2022-11-06T04:15:03.429Z,15.20
2022-11-06T04:17:36.229Z,15.80
2022-11-06T04:20:33.163Z,15.73
2022-11-06T04:23:20.213Z,15.25
2022-11-06T04:26:37.129Z,19.15
2022-11-06T04:29:41.413Z,13.32
2022-11-06T04:32:22.333Z,16.88
2022-11-06T04:35:12.689Z,19.30
2022-11-06T04:38:11.125Z,16.90
2022-11-06T04:41:19.343Z,18.98
2022-11-06T04:44:17.874Z,19.20
2022-11-06T04:46:57.302Z,11.90
2022-11-06T04:49:33.598Z,14.73
2022-11-06T04:52:09.972Z,19.83
2022-11-06T04:54:42.389Z,15.65
2022-11-06T04:57:14.468Z,14.15
2022-11-06T04:59:46.900Z,15.25
2022-11-06T05:02:19.201Z,12.48
2022-11-06T05:04:51.351Z,17.48
2022-11-06T05:07:23.690Z,12.65
2022-11-06T05:09:55.698Z,12.55
2022-11-06T05:12:27.690Z,13.48
2022-11-06T05:14:59.971Z,14.80
2022-11-06T05:17:36.293Z,14.07
2022-11-06T05:20:08.923Z,13.13
2022-11-06T05:23:00.993Z,20.92
2022-11-06T05:25:35.643Z,21.17
2022-11-06T05:28:08.904Z,13.65
2022-11-06T05:30:40.877Z,15.27
2022-11-06T05:33:12.850Z,17.42
2022-11-06T05:35:45.080Z,16.98
2022-11-06T05:38:17.937Z,14.77
2022-11-06T05:40:49.996Z,14.53
2022-11-06T05:43:22.034Z,11.35
2022-11-06T05:45:54.255Z,15.65
2022-11-06T05:48:27.511Z,17.30
2022-11-06T05:51:06.908Z,20.25
2022-11-06T05:53:39.051Z,11.95
2022-11-06T05:56:11.215Z,13.27
2022-11-06T05:58:43.300Z,18.63
2022-11-06T06:01:15.617Z,14.80
2022-11-06T06:03:47.724Z,15.50
2022-11-06T06:06:20.915Z,13.88
2022-11-06T06:08:52.998Z,85.65
2022-11-06T06:11:25.072Z,41.75
2022-11-06T06:13:57.086Z,36.80
2022-11-06T06:16:29.554Z,30.95
2022-11-06T06:19:01.706Z,33.95
2022-11-06T06:21:33.802Z,16.42
2022-11-06T06:24:07.017Z,13.07
2022-11-06T06:26:39.058Z,17.98
2022-11-06T06:29:11.104Z,36.13
2022-11-06T06:31:43.319Z,21.40
2022-11-06T06:34:15.836Z,42.97
2022-11-06T06:36:52.493Z,18.95
2022-11-06T06:39:24.913Z,19.70
2022-11-06T06:41:57.154Z,21.02
2022-11-06T06:44:29.274Z,12.60
2022-11-06T06:47:01.528Z,12.80
2022-11-06T06:49:33.608Z,20.60
2022-11-06T06:52:05.978Z,29.23
2022-11-06T06:54:38.029Z,17.67
2022-11-06T06:57:10.419Z,19.85
2022-11-06T06:59:42.610Z,21.95
2022-11-06T07:02:14.931Z,25.30
2022-11-06T07:04:47.105Z,27.63
2022-11-06T07:07:19.153Z,29.23
2022-11-06T07:09:52.347Z,47.80
2022-11-06T07:12:24.464Z,31.73
2022-11-06T07:14:56.666Z,41.13
2022-11-06T07:17:28.893Z,34.50
2022-11-06T07:20:01.163Z,29.98
2022-11-06T07:22:37.260Z,28.63
2022-11-06T07:25:09.953Z,31.80
2022-11-06T07:27:41.993Z,25.30
2022-11-06T07:30:14.126Z,26.40
2022-11-06T07:32:46.423Z,27.10
2022-11-06T07:35:18.472Z,25.50
2022-11-06T07:37:50.590Z,28.65
2022-11-06T07:40:22.961Z,27.15
2022-11-06T07:42:55.027Z,34.80
2022-11-06T07:45:27.035Z,25.52
2022-11-06T07:47:59.583Z,31.02
2022-11-06T07:50:32.367Z,27.92
2022-11-06T07:53:04.810Z,36.85
2022-11-06T07:55:41.969Z,33.83
2022-11-06T07:58:15.047Z,42.53
2022-11-06T08:00:55.466Z,31.02
2022-11-06T08:03:30.551Z,40.60
2022-11-06T08:06:07.559Z,37.42
2022-11-06T08:08:39.557Z,34.45
2022-11-06T08:11:12.258Z,40.63
2022-11-06T08:13:44.469Z,36.93
2022-11-06T08:16:16.799Z,34.40
2022-11-06T08:18:49.064Z,33.95
2022-11-06T08:21:21.388Z,30.98
2022-11-06T08:23:53.810Z,32.78
2022-11-06T08:26:26.773Z,33.25
2022-11-06T08:28:59.107Z,30.58
2022-11-06T08:31:31.387Z,30.52
2022-11-06T08:34:03.582Z,28.15
2022-11-06T08:36:49.503Z,27.50
2022-11-06T08:39:21.903Z,23.05
2022-11-06T08:41:53.983Z,21.52
2022-11-06T08:44:26.126Z,27.67
2022-11-06T08:46:58.121Z,23.65
2022-11-06T08:49:30.769Z,24.50
2022-11-06T08:52:02.766Z,20.08
2022-11-06T08:54:35.019Z,18.48
2022-11-06T08:57:07.210Z,18.08
2022-11-06T08:59:39.365Z,21.52
2022-11-06T09:02:13.385Z,21.23
2022-11-06T09:04:46.167Z,20.48
2022-11-06T09:07:18.526Z,16.30
2022-11-06T09:09:50.506Z,17.20
2022-11-06T09:12:22.606Z,17.05
2022-11-06T09:14:54.662Z,17.55
2022-11-06T09:17:26.703Z,15.88
2022-11-06T09:19:58.724Z,13.27
2022-11-06T09:22:31.040Z,14.18
2022-11-06T09:25:04.515Z,12.93
2022-11-06T09:27:47.218Z,12.60
2022-11-06T09:30:22.123Z,17.27
2022-11-06T09:32:56.978Z,13.77
2022-11-06T09:35:31.663Z,18.45
2022-11-06T09:38:11.330Z,21.80
2022-11-06T09:40:56.528Z,19.15
2022-11-06T09:46:46.581Z,16.63
2022-11-06T09:49:31.184Z,18.65
2022-11-06T09:52:13.573Z,17.90
2022-11-06T09:54:57.868Z,14.90
2022-11-06T09:57:34.387Z,13.52
2022-11-06T10:00:08.361Z,13.05
2022-11-06T10:02:47.454Z,13.10
2022-11-06T10:05:30.697Z,13.07
2022-11-06T10:08:13.329Z,11.23
2022-11-06T10:11:07.616Z,10.95
2022-11-06T10:14:03.818Z,13.88
2022-11-06T10:16:49.672Z,13.05
2022-11-06T10:19:37.000Z,11.13
2022-11-06T10:22:16.583Z,9.77
2022-11-06T10:25:07.522Z,11.10
2022-11-06T10:27:44.059Z,8.68
2022-11-06T10:30:18.979Z,9.00
2022-11-06T10:33:26.645Z,8.88
2022-11-06T10:36:06.045Z,8.73
2022-11-06T10:38:41.213Z,11.57
2022-11-06T10:41:19.390Z,8.35
2022-11-06T10:43:57.620Z,13.00
2022-11-06T10:46:46.708Z,8.60
2022-11-06T10:49:40.132Z,8.13
2022-11-06T10:52:20.991Z,7.30
2022-11-06T10:55:37.023Z,8.10
2022-11-06T10:58:14.022Z,7.75
2022-11-06T11:00:46.771Z,7.32
2022-11-06T11:03:46.955Z,7.55
2022-11-06T11:06:19.208Z,10.20
2022-11-06T11:08:52.408Z,10.45
2022-11-06T11:11:28.702Z,13.38
2022-11-06T11:14:00.857Z,12.95
2022-11-06T11:16:38.004Z,12.30
2022-11-06T11:19:41.603Z,13.40
2022-11-06T11:22:17.295Z,11.82
2022-11-06T11:25:07.113Z,11.07
2022-11-06T11:27:44.473Z,10.18
2022-11-06T11:30:22.972Z,10.98
2022-11-06T11:32:56.314Z,8.00
2022-11-06T11:35:30.914Z,8.73
2022-11-06T11:38:14.468Z,7.45
2022-11-06T11:40:47.299Z,6.22
2022-11-06T11:43:24.321Z,7.83
2022-11-06T11:46:09.404Z,7.57
2022-11-06T11:48:49.169Z,7.40
2022-11-06T11:51:39.821Z,6.15
2022-11-06T11:54:11.821Z,7.03
2022-11-06T11:57:04.671Z,9.73
2022-11-06T11:59:48.840Z,6.82
2022-11-06T12:02:40.784Z,6.03
2022-11-06T12:05:16.718Z,9.13
2022-11-06T12:07:59.257Z,6.10
2022-11-06T12:10:34.341Z,6.93
2022-11-06T12:13:19.724Z,6.88
2022-11-06T12:16:19.818Z,6.65
2022-11-06T12:18:58.921Z,6.35
2022-11-06T12:21:36.275Z,7.60
2022-11-06T12:24:41.663Z,7.40
2022-11-06T12:27:25.191Z,5.70
2022-11-06T12:30:07.872Z,6.18
2022-11-06T12:32:57.363Z,4.63
2022-11-06T12:35:41.855Z,5.38
2022-11-06T12:38:26.217Z,5.47
2022-11-06T12:41:06.869Z,5.05
2022-11-06T12:43:50.134Z,5.30
2022-11-06T12:46:52.980Z,4.60
2022-11-06T12:49:28.089Z,5.40
2022-11-06T12:52:09.240Z,5.70
2022-11-06T12:55:09.988Z,6.57
2022-11-06T12:58:00.806Z,4.43
2022-11-06T13:00:49.575Z,5.78
2022-11-06T13:03:27.644Z,5.18
2022-11-06T13:06:25.755Z,4.95
2022-11-06T13:09:24.558Z,6.95
2022-11-06T13:12:19.237Z,5.38
2022-11-06T13:15:20.607Z,5.47
2022-11-06T13:18:15.920Z,7.18
2022-11-06T13:21:20.494Z,5.53
2022-11-06T13:23:58.963Z,4.05
2022-11-06T13:26:39.291Z,5.32
2022-11-06T13:29:14.967Z,4.45
2022-11-06T13:31:59.340Z,4.85
2022-11-06T13:34:35.471Z,4.28
2022-11-06T13:37:14.803Z,4.78
2022-11-06T13:39:49.615Z,4.57
2022-11-06T13:42:34.797Z,4.60
2022-11-06T13:45:09.380Z,4.15
2022-11-06T13:47:53.473Z,3.65
2022-11-06T13:50:44.381Z,3.85
2022-11-06T13:53:22.395Z,4.25
2022-11-06T13:56:09.161Z,2.65
2022-11-06T13:59:15.197Z,3.53
2022-11-06T14:02:11.930Z,3.45
2022-11-06T14:05:33.597Z,3.60
2022-11-06T14:08:11.988Z,4.20
2022-11-06T14:10:53.855Z,3.90
2022-11-06T14:13:32.665Z,3.90
2022-11-06T14:16:26.631Z,3.70
2022-11-06T14:19:06.480Z,3.80
2022-11-06T14:22:01.811Z,3.95
2022-11-06T14:24:40.535Z,3.40
2022-11-06T14:27:21.697Z,3.38
2022-11-06T14:30:07.977Z,3.30
2022-11-06T14:32:42.996Z,3.92
2022-11-06T14:35:30.177Z,4.10
2022-11-06T14:38:27.265Z,3.75
2022-11-06T14:41:00.505Z,3.58
2022-11-06T14:43:34.631Z,4.53
2022-11-06T14:46:23.747Z,4.78
2022-11-06T14:49:07.003Z,5.25
2022-11-06T14:51:39.556Z,4.60
2022-11-06T14:54:23.331Z,4.25
2022-11-06T14:56:55.794Z,4.70
2022-11-06T14:59:37.927Z,6.28
2022-11-06T15:02:22.610Z,5.68
2022-11-06T15:05:05.750Z,5.80
2022-11-06T15:10:42.533Z,5.13
2022-11-06T15:13:17.706Z,5.25
2022-11-06T15:15:54.518Z,5.55
2022-11-06T15:18:27.670Z,6.18
2022-11-06T15:21:07.627Z,7.38
2022-11-06T15:23:42.361Z,4.75
2022-11-06T15:26:26.862Z,7.13
2022-11-06T15:29:11.882Z,6.10
2022-11-06T15:31:48.046Z,8.27
2022-11-06T15:34:34.027Z,8.43
2022-11-06T15:37:22.370Z,6.38
2022-11-06T15:40:00.567Z,7.28
2022-11-06T15:42:37.314Z,7.70
2022-11-06T15:45:22.061Z,6.93
2022-11-06T15:48:00.231Z,7.40
2022-11-06T15:50:33.364Z,7.78
2022-11-06T15:53:14.722Z,7.18
2022-11-06T15:55:55.519Z,7.15
2022-11-06T15:58:34.264Z,5.60
2022-11-06T16:01:08.082Z,8.48
2022-11-06T16:03:45.395Z,9.48
2022-11-06T16:06:18.171Z,8.13
2022-11-06T16:08:51.644Z,7.27
2022-11-06T16:11:23.983Z,7.13
2022-11-06T16:13:56.879Z,8.80
2022-11-06T16:16:45.380Z,6.20
2022-11-06T16:19:21.491Z,8.45
2022-11-06T16:22:02.286Z,7.88
2022-11-06T16:24:40.407Z,9.48
2022-11-06T16:27:14.280Z,9.93
2022-11-06T16:29:49.660Z,8.57
2022-11-06T16:32:26.329Z,12.18
2022-11-06T16:35:00.330Z,11.02
2022-11-06T16:37:38.218Z,10.63
2022-11-06T16:40:48.163Z,9.73
2022-11-06T16:43:22.035Z,11.77
2022-11-06T16:45:58.497Z,9.38
2022-11-06T16:48:45.199Z,10.95
2022-11-06T16:51:34.044Z,12.05
2022-11-06T16:54:18.481Z,10.30
2022-11-06T16:56:50.863Z,8.63
2022-11-06T16:59:26.725Z,7.93
2022-11-06T17:01:59.792Z,10.82
2022-11-06T17:04:32.010Z,11.95
2022-11-06T17:07:04.338Z,10.05
2022-11-06T17:09:36.702Z,13.63
2022-11-06T17:12:10.739Z,10.98
2022-11-06T17:14:44.507Z,10.38
2022-11-06T17:17:26.240Z,12.48
2022-11-06T17:19:58.426Z,14.23
2022-11-06T17:22:31.155Z,16.60
2022-11-06T17:25:03.204Z,17.30
2022-11-06T17:27:35.431Z,15.82
2022-11-06T17:30:14.617Z,24.70
2022-11-06T17:32:46.695Z,23.85
2022-11-06T17:35:18.843Z,16.73
2022-11-06T17:37:51.048Z,19.33
2022-11-06T17:40:23.061Z,28.17
2022-11-06T17:42:55.308Z,23.23
2022-11-06T17:45:27.331Z,28.90
2022-11-06T17:47:59.603Z,29.58
2022-11-06T17:50:51.670Z,31.40
2022-11-06T17:53:23.737Z,44.38
2022-11-06T17:55:56.385Z,35.67
2022-11-06T17:58:28.401Z,34.33
2022-11-06T18:01:11.126Z,39.13
2022-11-06T18:03:44.998Z,42.13
2022-11-06T18:06:17.369Z,37.78
2022-11-06T18:08:49.825Z,41.25
2022-11-06T18:11:22.731Z,40.22
2022-11-06T18:13:55.941Z,51.20
2022-11-06T18:16:32.235Z,44.38
2022-11-06T18:19:10.191Z,43.08
2022-11-06T18:21:42.349Z,43.60
2022-11-06T18:24:15.119Z,41.38
2022-11-06T18:26:47.448Z,40.40
2022-11-06T18:29:20.438Z,42.40
2022-11-06T18:31:52.804Z,44.58
2022-11-06T18:34:25.108Z,41.55
2022-11-06T18:36:57.163Z,42.20
2022-11-06T18:39:29.809Z,36.40
2022-11-06T18:42:02.302Z,41.38
2022-11-06T18:44:37.447Z,36.58
2022-11-06T18:47:09.522Z,40.40
2022-11-06T18:49:41.979Z,37.50
2022-11-06T18:52:23.413Z,40.60
2022-11-06T18:55:05.247Z,32.10
2022-11-06T18:57:37.592Z,32.15
2022-11-06T19:00:13.269Z,30.73
2022-11-06T19:02:45.705Z,28.05
2022-11-06T19:05:18.099Z,34.15
2022-11-06T19:07:53.822Z,26.88
2022-11-06T19:10:29.557Z,27.52
2022-11-06T19:13:01.787Z,25.83
2022-11-06T19:15:34.090Z,26.15
2022-11-06T19:18:06.545Z,29.00
2022-11-06T19:20:42.713Z,43.10
2022-11-06T19:23:15.888Z,44.78
2022-11-06T19:25:58.763Z,52.75
2022-11-06T19:28:37.102Z,56.85
2022-11-06T19:31:09.723Z,50.10
2022-11-06T19:33:42.108Z,35.17
2022-11-06T19:36:14.301Z,32.45
2022-11-06T19:38:46.814Z,32.70
2022-11-06T19:41:19.190Z,28.42
2022-11-06T19:43:51.261Z,25.55
2022-11-06T19:46:27.141Z,25.23
2022-11-06T19:49:01.895Z,26.85
2022-11-06T19:51:34.800Z,24.85
2022-11-06T19:54:07.839Z,26.85
2022-11-06T19:57:27.478Z,28.20
2022-11-06T19:59:32.293Z,22.20
2022-11-06T20:02:04.640Z,22.25
2022-11-06T20:04:36.815Z,17.60
2022-11-06T20:07:09.658Z,20.13
2022-11-06T20:09:41.933Z,18.93
2022-11-06T20:12:15.893Z,19.63
2022-11-06T20:14:49.056Z,22.02
2022-11-06T20:17:21.372Z,22.50
2022-11-06T20:19:53.528Z,20.58
2022-11-06T20:22:25.589Z,17.67
2022-11-06T20:24:57.676Z,25.63
2022-11-06T20:27:29.825Z,23.55
2022-11-06T20:30:07.704Z,23.52
2022-11-06T20:32:39.899Z,22.70
2022-11-06T20:35:15.985Z,20.50
2022-11-06T20:37:48.066Z,24.27
2022-11-06T20:40:20.526Z,17.77
2022-11-06T20:42:52.752Z,17.75
2022-11-06T20:45:24.800Z,17.33
2022-11-06T20:47:56.918Z,14.43
2022-11-06T20:50:29.282Z,15.73
2022-11-06T20:53:01.264Z,14.43
2022-11-06T20:55:34.841Z,16.20
2022-11-06T20:58:06.908Z,15.05
2022-11-06T21:00:38.918Z,17.70
2022-11-06T21:03:11.086Z,14.48
2022-11-06T21:05:43.136Z,25.05
2022-11-06T21:08:15.177Z,14.27
2022-11-06T21:11:04.868Z,15.80
2022-11-06T21:13:40.573Z,15.80
2022-11-06T21:16:14.102Z,16.30
2022-11-06T21:18:46.833Z,13.02
2022-11-06T21:21:21.859Z,12.23
2022-11-06T21:23:54.712Z,13.57
2022-11-06T21:26:33.435Z,16.92
2022-11-06T21:29:08.473Z,11.52
2022-11-06T21:31:47.558Z,13.52
2022-11-06T21:34:21.714Z,11.95
2022-11-06T21:36:57.028Z,14.80
2022-11-06T21:39:36.430Z,14.65
2022-11-06T21:42:09.318Z,11.73
2022-11-06T21:44:42.446Z,16.27
2022-11-06T21:47:14.849Z,12.63
2022-11-06T21:49:54.261Z,7.35
2022-11-06T21:52:45.078Z,6.85
2022-11-06T21:55:35.979Z,7.25
2022-11-06T21:58:08.843Z,4.35
2022-11-06T22:00:41.366Z,5.90
2022-11-06T22:03:14.565Z,5.90
2022-11-06T22:05:47.373Z,2.17
2022-11-06T22:08:20.010Z,3.10
2022-11-06T22:10:52.410Z,5.72
2022-11-06T22:13:25.055Z,4.53
2022-11-06T22:16:01.052Z,4.60
2022-11-06T22:18:33.573Z,1.92
2022-11-06T22:21:10.173Z,2.38
2022-11-06T22:23:43.656Z,2.72
2022-11-06T22:28:57.816Z,3.13
2022-11-06T22:31:30.942Z,3.45
2022-11-06T22:34:04.063Z,3.13
2022-11-06T22:36:37.543Z,3.63
2022-11-06T22:39:11.263Z,4.03
2022-11-06T22:41:43.929Z,2.30
2022-11-06T22:44:16.930Z,2.77
2022-11-06T22:46:49.665Z,3.40
2022-11-06T22:49:22.565Z,2.72
2022-11-06T22:51:55.069Z,3.30
2022-11-06T22:54:27.468Z,3.10
2022-11-06T22:56:59.871Z,2.80
2022-11-06T22:59:32.510Z,2.63
2022-11-06T23:02:05.000Z,2.20
2022-11-06T23:04:37.817Z,2.20
2022-11-06T23:07:10.319Z,3.42
2022-11-06T23:09:42.956Z,1.58
2022-11-06T23:12:18.476Z,1.90
2022-11-06T23:14:50.879Z,2.05
2022-11-06T23:17:23.283Z,2.85
2022-11-06T23:19:56.040Z,3.35
2022-11-06T23:22:37.807Z,2.47
2022-11-06T23:25:11.405Z,3.05
2022-11-06T23:30:22.208Z,3.28
2022-11-06T23:32:54.725Z,3.47
2022-11-06T23:35:32.413Z,2.97
2022-11-06T23:38:05.408Z,2.22
2022-11-06T23:40:38.049Z,2.72
2022-11-06T23:43:11.271Z,3.45
2022-11-06T23:45:49.816Z,11.43
2022-11-06T23:48:22.221Z,5.72
2022-11-06T23:50:54.855Z,6.00
2022-11-06T23:53:27.622Z,3.30
2022-11-06T23:56:06.028Z,2.03
2022-11-06T23:58:39.984Z,2.63
